Time;durP1;ratioP1;P1;durP2;ratioP2;P2;SDS_P1;SDS_P2;PMS_P1;PMS_P2;Temp;Humidity;BMP_temperature;BMP_pressure;BME280_temperature;BME280_humidity;BME280_pressure;Samples;Min_cycle;Max_cycle;Signal;HPM_P1;HPM_P2
2023/10/16 00:00:32;;;;;;;8.73;4.40;;;5.00;23.00;;;;;;5039785;28;20458;-68
2023/10/16 00:03:00;;;;;;;9.80;4.73;;;5.00;23.00;;;;;;5045956;28;21070;-66
2023/10/16 00:05:31;;;;;;;8.37;4.47;;;5.00;22.90;;;;;;5045529;28;20462;-66
2023/10/16 00:08:00;;;;;;;7.83;4.37;;;5.00;22.90;;;;;;5044560;28;20489;-66
2023/10/16 00:10:27;;;;;;;8.27;4.87;;;4.90;23.20;;;;;;5046111;28;20454;-66
2023/10/16 00:12:56;;;;;;;9.87;5.60;;;4.90;23.40;;;;;;5051519;28;20481;-66
2023/10/16 00:15:22;;;;;;;7.23;4.33;;;4.90;23.50;;;;;;5047909;28;20537;-66
2023/10/16 00:17:49;;;;;;;8.27;4.47;;;4.90;23.70;;;;;;5042670;28;23157;-70
2023/10/16 00:20:19;;;;;;;10.13;5.00;;;4.80;23.90;;;;;;5050877;28;20493;-66
2023/10/16 00:22:45;;;;;;;7.50;5.03;;;4.80;23.90;;;;;;5050161;28;20560;-66
2023/10/16 00:25:15;;;;;;;8.80;5.07;;;4.80;23.90;;;;;;5053769;28;20453;-66
2023/10/16 00:27:42;;;;;;;11.60;6.20;;;4.80;23.70;;;;;;5050091;28;20485;-66
2023/10/16 00:30:11;;;;;;;10.73;6.20;;;4.70;23.90;;;;;;5050450;28;20485;-66
2023/10/16 00:32:38;;;;;;;10.10;5.93;;;4.70;23.90;;;;;;5048316;28;20516;-66
2023/10/16 00:35:08;;;;;;;8.53;5.93;;;4.70;24.00;;;;;;5050067;28;20457;-66
2023/10/16 00:37:35;;;;;;;10.67;5.60;;;4.70;23.70;;;;;;5051224;28;21022;-66
2023/10/16 00:40:07;;;;;;;9.43;5.60;;;4.70;23.70;;;;;;5047692;28;21056;-66
2023/10/16 00:42:34;;;;;;;7.40;4.67;;;4.80;23.80;;;;;;5052140;28;20505;-66
2023/10/16 00:45:00;;;;;;;9.00;4.90;;;4.70;23.70;;;;;;5051402;28;20462;-66
2023/10/16 00:47:28;;;;;;;7.60;5.07;;;4.70;24.00;;;;;;5050857;28;20493;-66
2023/10/16 00:49:59;;;;;;;7.17;4.57;;;4.70;23.90;;;;;;5047436;28;20841;-65
2023/10/16 00:52:26;;;;;;;8.30;4.90;;;4.70;23.70;;;;;;5049114;28;20482;-67
2023/10/16 00:54:54;;;;;;;7.90;4.73;;;4.70;23.90;;;;;;5048122;28;20962;-67
2023/10/16 00:57:27;;;;;;;7.00;4.53;;;4.70;23.70;;;;;;5062123;28;21019;-67
2023/10/16 00:59:54;;;;;;;12.70;5.77;;;4.70;23.70;;;;;;5057721;28;20454;-66
2023/10/16 01:02:30;;;;;;;11.73;5.20;;;4.70;23.40;;;;;;5047068;28;20485;-67
2023/10/16 01:05:01;;;;;;;9.20;5.33;;;4.70;23.40;;;;;;5046622;28;20465;-66
2023/10/16 01:07:27;;;;;;;11.70;6.00;;;4.80;23.30;;;;;;5044642;28;20474;-68
2023/10/16 01:09:54;;;;;;;7.50;5.20;;;4.70;23.40;;;;;;5044699;28;20997;-68
2023/10/16 01:12:22;;;;;;;7.70;5.13;;;4.70;23.90;;;;;;5049309;28;21706;-67
2023/10/16 01:14:48;;;;;;;7.50;4.77;;;4.60;23.90;;;;;;5046998;28;20976;-67
2023/10/16 01:17:15;;;;;;;7.10;4.87;;;4.60;23.80;;;;;;5044386;28;20469;-68
2023/10/16 01:19:43;;;;;;;7.83;4.87;;;4.60;23.60;;;;;;5048223;28;20721;-68
2023/10/16 01:22:13;;;;;;;9.23;4.60;;;4.60;23.50;;;;;;5046783;28;20517;-66
2023/10/16 01:24:45;;;;;;;9.30;5.10;;;4.60;23.60;;;;;;5048214;28;20508;-66
2023/10/16 01:27:26;;;;;;;10.70;4.30;;;4.50;24.00;;;;;;5048337;28;20461;-66
2023/10/16 01:29:53;;;;;;;10.83;5.10;;;4.50;24.00;;;;;;5045951;28;20867;-67
2023/10/16 01:32:20;;;;;;;7.60;4.63;;;4.50;24.00;;;;;;5046969;28;20493;-67
2023/10/16 01:34:47;;;;;;;9.17;5.67;;;4.40;24.00;;;;;;5046368;28;20462;-68
2023/10/16 01:37:18;;;;;;;10.57;6.40;;;4.40;24.10;;;;;;5049742;28;20494;-67
2023/10/16 01:39:49;;;;;;;14.70;8.97;;;4.40;24.80;;;;;;5046818;28;20450;-66
2023/10/16 01:42:18;;;;;;;10.93;6.00;;;4.40;25.20;;;;;;5047240;28;20489;-66
2023/10/16 01:44:45;;;;;;;9.87;4.43;;;4.30;25.00;;;;;;5047436;28;21197;-68
2023/10/16 01:47:15;;;;;;;7.30;4.40;;;4.30;24.70;;;;;;5051177;28;20457;-66
2023/10/16 01:49:42;;;;;;;10.80;5.73;;;4.20;24.30;;;;;;5046331;28;20494;-67
2023/10/16 01:52:11;;;;;;;7.83;4.80;;;4.10;24.20;;;;;;5049825;28;20555;-68
2023/10/16 01:54:39;;;;;;;8.30;4.93;;;4.10;24.20;;;;;;5047189;28;20516;-68
2023/10/16 01:57:10;;;;;;;8.70;6.00;;;4.00;24.40;;;;;;5046308;28;20470;-66
2023/10/16 01:59:39;;;;;;;9.47;6.20;;;4.00;24.60;;;;;;5048658;28;20485;-67
2023/10/16 02:02:09;;;;;;;9.43;6.10;;;3.90;24.90;;;;;;5046580;28;20499;-67
2023/10/16 02:04:36;;;;;;;11.67;5.33;;;3.90;25.20;;;;;;5049482;28;20454;-67
2023/10/16 02:07:03;;;;;;;8.40;5.50;;;3.90;25.80;;;;;;5044639;28;20450;-66
2023/10/16 02:09:31;;;;;;;7.63;4.93;;;3.90;26.20;;;;;;5054505;28;20474;-66
2023/10/16 02:11:59;;;;;;;7.43;4.70;;;3.90;25.90;;;;;;5044155;28;20492;-66
2023/10/16 02:14:27;;;;;;;7.00;4.73;;;3.90;25.80;;;;;;5049841;28;20458;-68
2023/10/16 02:16:54;;;;;;;9.17;4.83;;;3.90;25.90;;;;;;5048155;28;20458;-67
2023/10/16 02:19:21;;;;;;;7.90;4.13;;;3.80;26.00;;;;;;5045712;28;20455;-67
2023/10/16 02:21:49;;;;;;;11.03;5.80;;;3.80;26.20;;;;;;5053885;23;20556;-63
2023/10/16 02:24:16;;;;;;;10.03;4.87;;;3.80;26.10;;;;;;5044925;28;20450;-64
2023/10/16 02:26:55;;;;;;;10.03;5.50;;;3.80;26.20;;;;;;5041463;28;20458;-64
2023/10/16 02:29:23;;;;;;;8.47;5.10;;;3.80;26.10;;;;;;5045546;28;20598;-64
2023/10/16 02:31:51;;;;;;;8.73;4.53;;;3.80;25.80;;;;;;5041339;28;21080;-64
2023/10/16 02:34:22;;;;;;;8.87;5.23;;;3.70;26.30;;;;;;5041180;28;20466;-64
2023/10/16 02:36:50;;;;;;;9.97;6.30;;;3.70;26.30;;;;;;5043768;28;20457;-64
2023/10/16 02:39:35;;;;;;;8.60;5.40;;;3.70;26.40;;;;;;5044607;28;20512;-64
2023/10/16 02:42:05;;;;;;;8.33;5.27;;;3.70;26.80;;;;;;5043535;28;20512;-64
2023/10/16 02:44:33;;;;;;;10.30;5.57;;;3.70;27.10;;;;;;5044931;28;20569;-64
2023/10/16 02:47:05;;;;;;;8.83;5.43;;;3.80;26.80;;;;;;5040107;28;20463;-64
2023/10/16 02:49:33;;;;;;;8.00;5.17;;;3.80;26.50;;;;;;5039396;28;20484;-64
2023/10/16 02:51:59;;;;;;;7.93;5.03;;;3.80;26.50;;;;;;5040607;28;20570;-65
2023/10/16 02:54:26;;;;;;;7.23;4.90;;;3.80;26.30;;;;;;5037368;28;20466;-65
2023/10/16 02:56:59;;;;;;;8.33;4.97;;;3.70;26.40;;;;;;5041392;28;20884;-65
2023/10/16 02:59:26;;;;;;;10.77;5.00;;;3.70;26.30;;;;;;5042555;28;20463;-65
2023/10/16 03:01:55;;;;;;;7.07;4.90;;;3.70;26.60;;;;;;5019925;28;20530;-65
2023/10/16 03:04:27;;;;;;;8.17;5.00;;;3.70;26.60;;;;;;5025178;28;20929;-65
2023/10/16 03:06:54;;;;;;;11.30;5.00;;;3.60;26.40;;;;;;5018403;28;20490;-65
2023/10/16 03:09:27;;;;;;;8.03;5.60;;;3.60;26.50;;;;;;5021738;28;22322;-65
2023/10/16 03:11:57;;;;;;;8.93;5.33;;;3.60;26.50;;;;;;5018231;28;20528;-65
2023/10/16 03:14:35;;;;;;;8.40;5.53;;;3.50;26.40;;;;;;5017270;28;20463;-66
2023/10/16 03:17:08;;;;;;;8.27;5.60;;;3.50;26.70;;;;;;5021270;28;20477;-65
2023/10/16 03:19:37;;;;;;;8.70;5.00;;;3.40;26.80;;;;;;5018792;28;20952;-65
2023/10/16 03:22:11;;;;;;;8.10;5.40;;;3.40;26.80;;;;;;5022107;28;20479;-65
2023/10/16 03:24:38;;;;;;;7.40;5.10;;;3.40;26.80;;;;;;5015990;28;20547;-65
2023/10/16 03:27:08;;;;;;;10.33;5.60;;;3.40;26.80;;;;;;5023599;28;20467;-65
2023/10/16 03:29:35;;;;;;;10.80;7.87;;;3.40;27.00;;;;;;5021341;28;20533;-65
2023/10/16 03:32:02;;;;;;;12.80;10.13;;;3.40;26.70;;;;;;5032125;28;20490;-66
2023/10/16 03:34:31;;;;;;;11.43;10.00;;;3.40;27.20;;;;;;5037749;28;20545;-66
2023/10/16 03:37:04;;;;;;;11.40;9.90;;;3.40;27.00;;;;;;5037286;28;20472;-65
2023/10/16 03:39:31;;;;;;;12.40;9.03;;;3.40;26.90;;;;;;5044514;28;20466;-65
2023/10/16 03:41:58;;;;;;;13.10;8.47;;;3.40;27.00;;;;;;5039379;28;20494;-65
2023/10/16 03:44:26;;;;;;;14.00;7.07;;;3.40;26.80;;;;;;5038351;28;20470;-65
2023/10/16 03:46:55;;;;;;;8.03;6.30;;;3.50;26.40;;;;;;5041696;28;20469;-65
2023/10/16 03:49:22;;;;;;;10.47;6.00;;;3.50;26.30;;;;;;5041227;28;20483;-65
2023/10/16 03:51:50;;;;;;;13.67;7.30;;;3.40;26.50;;;;;;5040416;28;20465;-65
2023/10/16 03:54:30;;;;;;;8.90;5.50;;;3.40;26.40;;;;;;5039745;28;20548;-64
2023/10/16 03:56:59;;;;;;;8.30;4.97;;;3.50;26.50;;;;;;5036655;28;20558;-66
2023/10/16 03:59:26;;;;;;;9.90;5.50;;;3.50;26.20;;;;;;5035889;28;21029;-66
2023/10/16 04:01:53;;;;;;;7.90;6.07;;;3.50;26.20;;;;;;5028573;28;20547;-65
2023/10/16 04:04:21;;;;;;;7.67;5.13;;;3.40;26.30;;;;;;5025580;28;20458;-66
2023/10/16 04:06:48;;;;;;;8.50;5.60;;;3.40;26.10;;;;;;5023799;28;20473;-65
2023/10/16 04:09:17;;;;;;;7.77;5.27;;;3.40;26.00;;;;;;5023823;28;20532;-65
2023/10/16 04:11:54;;;;;;;7.87;4.87;;;3.40;26.00;;;;;;5017274;28;20475;-65
2023/10/16 04:14:43;;;;;;;12.63;5.13;;;3.40;26.00;;;;;;5021735;28;20470;-65
2023/10/16 04:17:10;;;;;;;7.23;4.40;;;3.30;26.30;;;;;;5024204;28;20463;-65
2023/10/16 04:19:36;;;;;;;8.10;4.53;;;3.30;26.30;;;;;;5021596;28;20546;-65
2023/10/16 04:22:09;;;;;;;8.73;4.73;;;3.30;26.50;;;;;;5024469;28;20490;-65
2023/10/16 04:24:44;;;;;;;14.63;5.30;;;3.30;26.60;;;;;;5025518;28;20471;-65
2023/10/16 04:27:32;;;;;;;6.83;4.70;;;3.20;26.80;;;;;;5026025;28;20462;-65
2023/10/16 04:32:56;;;;;;;27.83;5.03;;;3.10;27.20;;;;;;5040118;28;20497;-65
2023/10/16 04:38:55;;;;;;;11.53;5.03;;;3.10;27.40;;;;;;5034887;28;20516;-64
2023/10/16 04:44:49;;;;;;;21.57;4.70;;;3.10;27.50;;;;;;5008347;28;20473;-64
2023/10/16 04:47:17;;;;;;;8.60;4.20;;;3.00;27.50;;;;;;5038125;28;20540;-64
2023/10/16 04:49:59;;;;;;;11.23;4.80;;;3.00;27.70;;;;;;5040821;28;20486;-64
2023/10/16 04:52:51;;;;;;;6.83;4.20;;;3.00;27.80;;;;;;5045043;28;20509;-64
2023/10/16 04:55:52;;;;;;;10.23;4.27;;;3.00;27.80;;;;;;5043579;28;20482;-64
2023/10/16 05:00:57;;;;;;;8.10;4.43;;;3.00;28.00;;;;;;5041423;28;20458;-64
2023/10/16 05:03:23;;;;;;;6.87;4.20;;;3.00;27.80;;;;;;5039703;28;20518;-64
2023/10/16 05:06:14;;;;;;;7.47;4.37;;;2.90;27.80;;;;;;5043853;28;20458;-64
2023/10/16 05:08:59;;;;;;;8.40;4.33;;;2.90;28.00;;;;;;5039188;28;20457;-64
2023/10/16 05:11:27;;;;;;;8.10;4.33;;;2.90;28.10;;;;;;5039929;28;20465;-64
2023/10/16 05:14:15;;;;;;;7.30;4.47;;;2.90;27.90;;;;;;5041503;28;21169;-64
2023/10/16 05:16:47;;;;;;;10.37;5.00;;;3.00;28.00;;;;;;5040578;28;20901;-64
2023/10/16 05:19:30;;;;;;;6.60;4.00;;;3.00;28.00;;;;;;5045279;28;20462;-64
2023/10/16 05:22:09;;;;;;;7.50;5.20;;;3.00;27.90;;;;;;5040168;28;20585;-64
2023/10/16 06:14:11;;;;;;;34.67;4.40;;;3.10;27.70;;;;;;5042259;28;20461;-64
2023/10/16 06:16:39;;;;;;;12.97;4.53;;;3.20;27.60;;;;;;5043699;28;20523;-64
2023/10/16 06:19:07;;;;;;;6.17;4.47;;;3.30;27.50;;;;;;5043237;28;20512;-64
2023/10/16 06:21:36;;;;;;;8.03;4.00;;;3.30;27.20;;;;;;5040256;28;20466;-64
2023/10/16 06:24:17;;;;;;;29.67;5.20;;;3.40;26.90;;;;;;5039573;28;20485;-64
2023/10/16 06:26:46;;;;;;;16.80;4.57;;;3.50;26.60;;;;;;5044098;28;20462;-64
2023/10/16 06:29:13;;;;;;;9.67;4.63;;;3.60;26.60;;;;;;5036059;28;20467;-64
2023/10/16 06:31:49;;;;;;;8.13;4.27;;;3.60;26.40;;;;;;5032500;28;20998;-64
2023/10/16 06:34:16;;;;;;;13.37;4.50;;;3.80;26.10;;;;;;5042652;28;20541;-64
2023/10/16 06:36:44;;;;;;;7.13;3.80;;;3.90;25.60;;;;;;5045557;28;20469;-64
2023/10/16 06:39:22;;;;;;;7.13;4.43;;;4.10;25.30;;;;;;5038421;28;20494;-64
2023/10/16 06:41:53;;;;;;;8.70;3.70;;;4.30;25.00;;;;;;5043171;28;21030;-64
2023/10/16 06:44:21;;;;;;;7.90;3.90;;;4.50;24.30;;;;;;5042462;28;20999;-64
2023/10/16 06:46:49;;;;;;;6.60;3.63;;;4.60;23.70;;;;;;5044202;28;20454;-64
2023/10/16 06:49:26;;;;;;;9.90;4.00;;;4.80;23.20;;;;;;5040396;28;20455;-64
2023/10/16 06:51:56;;;;;;;6.10;3.47;;;5.00;22.70;;;;;;5041970;28;20461;-64
2023/10/16 06:54:24;;;;;;;12.53;4.17;;;5.30;22.00;;;;;;5041226;28;20462;-64
2023/10/16 06:56:50;;;;;;;19.03;4.30;;;5.50;21.10;;;;;;5039878;28;21228;-64
2023/10/16 06:59:17;;;;;;;11.17;3.83;;;5.80;20.70;;;;;;5038273;28;20462;-64
2023/10/16 07:01:46;;;;;;;15.07;3.50;;;6.10;19.70;;;;;;5040760;28;20477;-64
2023/10/16 07:04:14;;;;;;;6.93;3.33;;;6.30;18.60;;;;;;5042209;28;20498;-64
2023/10/16 07:06:42;;;;;;;10.90;3.57;;;6.50;18.30;;;;;;5046314;28;20602;-64
2023/10/16 07:09:12;;;;;;;7.93;4.07;;;6.70;17.80;;;;;;5043701;28;20542;-65
2023/10/16 07:11:42;;;;;;;9.37;3.10;;;6.90;17.20;;;;;;5045012;28;20481;-65
2023/10/16 07:14:12;;;;;;;21.93;4.10;;;7.10;16.70;;;;;;5035849;28;20459;-65
2023/10/16 07:16:39;;;;;;;12.20;4.00;;;7.20;16.60;;;;;;5045338;28;20501;-65
2023/10/16 07:19:07;;;;;;;6.27;3.90;;;7.50;15.90;;;;;;5043870;28;20461;-65
2023/10/16 07:21:34;;;;;;;5.53;3.70;;;7.70;15.70;;;;;;5046993;28;21012;-65
2023/10/16 07:24:02;;;;;;;8.47;4.40;;;7.90;15.30;;;;;;5045925;28;20471;-64
2023/10/16 07:26:31;;;;;;;9.00;4.03;;;8.10;15.00;;;;;;5043879;28;20457;-64
2023/10/16 07:28:58;;;;;;;7.00;3.60;;;8.30;14.50;;;;;;5047693;28;20454;-64
2023/10/16 07:31:26;;;;;;;9.67;3.70;;;8.40;13.80;;;;;;5041477;28;20533;-65
2023/10/16 07:33:59;;;;;;;13.90;5.50;;;8.50;13.40;;;;;;5043923;28;20994;-64
2023/10/16 07:36:26;;;;;;;20.87;4.30;;;8.50;13.00;;;;;;5047391;28;20469;-64
2023/10/16 07:38:54;;;;;;;13.57;4.33;;;8.40;12.70;;;;;;5040339;28;20454;-64
2023/10/16 07:41:23;;;;;;;22.40;4.80;;;8.50;13.30;;;;;;5046665;28;20536;-64
2023/10/16 07:43:56;;;;;;;42.70;5.90;;;8.70;13.00;;;;;;5042452;28;20478;-64
2023/10/16 07:46:30;;;;;;;13.73;4.73;;;8.70;12.80;;;;;;5041246;28;20497;-64
2023/10/16 07:49:01;;;;;;;9.23;4.30;;;9.00;12.70;;;;;;5045458;28;20461;-65
2023/10/16 07:51:28;;;;;;;8.77;3.73;;;9.40;11.90;;;;;;5041003;28;20442;-64
2023/10/16 07:53:56;;;;;;;5.73;3.57;;;9.80;11.60;;;;;;5042687;28;20558;-65
2023/10/16 07:56:28;;;;;;;12.00;4.00;;;10.10;9.90;;;;;;5047139;28;20477;-65
2023/10/16 07:59:06;;;;;;;8.13;4.67;;;10.10;9.50;;;;;;5044554;28;20503;-64
2023/10/16 08:01:36;;;;;;;8.50;4.97;;;10.00;9.70;;;;;;5039428;28;20497;-65
2023/10/16 08:04:03;;;;;;;7.20;5.00;;;10.00;9.80;;;;;;5043081;28;20524;-65
2023/10/16 08:06:30;;;;;;;11.53;4.40;;;10.10;10.50;;;;;;5045108;28;20553;-65
2023/10/16 08:11:42;;;;;;;6.10;4.33;;;10.70;9.70;;;;;;5039847;28;20456;-65
2023/10/16 08:14:12;;;;;;;6.37;4.23;;;10.90;9.20;;;;;;5038955;28;21005;-65
2023/10/16 08:16:39;;;;;;;8.40;5.40;;;11.00;9.30;;;;;;5042045;28;20490;-65
2023/10/16 08:19:14;;;;;;;8.13;5.40;;;11.20;8.80;;;;;;5041248;28;20446;-65
2023/10/16 08:21:43;;;;;;;7.60;4.80;;;11.60;8.20;;;;;;5044032;28;20501;-65
2023/10/16 08:24:12;;;;;;;6.40;4.27;;;12.10;7.10;;;;;;5047059;28;20539;-65
2023/10/16 08:26:43;;;;;;;7.47;4.80;;;12.80;6.10;;;;;;5042252;28;20463;-65
2023/10/16 08:29:20;;;;;;;6.90;4.70;;;13.80;4.30;;;;;;5041235;28;20457;-65
2023/10/16 08:31:55;;;;;;;5.60;4.03;;;15.00;3.10;;;;;;5037428;28;20463;-65
2023/10/16 08:34:22;;;;;;;5.87;3.70;;;16.90;1.00;;;;;;5042576;28;20469;-65
2023/10/16 08:36:50;;;;;;;7.60;4.20;;;18.40;1.00;;;;;;5039653;28;20469;-65
2023/10/16 08:39:19;;;;;;;7.33;4.30;;;19.40;1.00;;;;;;5043625;28;20454;-65
2023/10/16 08:41:51;;;;;;;7.17;4.30;;;19.90;1.00;;;;;;5036585;28;20543;-65
2023/10/16 08:44:21;;;;;;;5.47;3.70;;;20.60;1.00;;;;;;5043114;28;20462;-65
2023/10/16 08:47:15;;;;;;;5.57;3.97;;;21.90;1.00;;;;;;5044940;28;20459;-65
2023/10/16 08:49:51;;;;;;;5.50;3.77;;;23.10;1.00;;;;;;5039259;28;20875;-66
2023/10/16 08:52:22;;;;;;;5.73;3.77;;;24.50;1.00;;;;;;5045084;28;20520;-66
2023/10/16 08:55:14;;;;;;;6.63;4.20;;;25.60;1.00;;;;;;5043072;28;20856;-66
2023/10/16 08:57:41;;;;;;;5.50;4.17;;;26.30;1.00;;;;;;5048157;28;20446;-66
2023/10/16 09:00:16;;;;;;;5.90;3.90;;;26.80;1.00;;;;;;5038741;28;20458;-66
2023/10/16 09:02:47;;;;;;;6.03;3.70;;;26.90;1.00;;;;;;5044840;28;20462;-66
2023/10/16 09:05:16;;;;;;;6.43;4.17;;;26.90;1.00;;;;;;5047765;28;20462;-66
2023/10/16 09:07:43;;;;;;;5.67;3.97;;;26.50;1.00;;;;;;5043042;28;20518;-66
2023/10/16 09:10:10;;;;;;;5.70;3.90;;;26.30;1.00;;;;;;5042847;28;20462;-66
2023/10/16 09:12:44;;;;;;;4.90;3.70;;;26.50;1.00;;;;;;5042822;28;20478;-66
2023/10/16 09:15:15;;;;;;;7.33;4.07;;;26.60;1.00;;;;;;5048210;28;20454;-66
2023/10/16 09:17:41;;;;;;;8.63;4.30;;;26.80;1.00;;;;;;5039497;28;20498;-66
2023/10/16 09:20:13;;;;;;;6.03;4.17;;;27.50;1.00;;;;;;5042362;28;20458;-66
2023/10/16 09:22:45;;;;;;;7.50;3.83;;;28.60;1.00;;;;;;5042757;28;21112;-66
2023/10/16 09:25:15;;;;;;;5.00;3.50;;;29.70;1.00;;;;;;5045559;28;20459;-66
2023/10/16 09:27:42;;;;;;;6.17;3.90;;;30.20;1.00;;;;;;5048335;28;20462;-66
2023/10/16 09:30:14;;;;;;;5.20;3.60;;;30.80;1.00;;;;;;5045570;28;20455;-66
2023/10/16 09:32:42;;;;;;;5.90;3.10;;;31.10;1.00;;;;;;5043037;28;20470;-65
2023/10/16 09:35:13;;;;;;;9.80;3.97;;;31.90;1.00;;;;;;5042436;28;21064;-65
2023/10/16 09:37:40;;;;;;;6.30;3.77;;;32.50;1.00;;;;;;5042440;28;20873;-66
2023/10/16 09:40:19;;;;;;;5.27;3.73;;;32.70;1.00;;;;;;5044692;28;20447;-65
2023/10/16 09:42:55;;;;;;;6.10;3.00;;;32.40;1.00;;;;;;5038509;28;20981;-65
2023/10/16 09:45:23;;;;;;;6.97;3.47;;;32.40;1.00;;;;;;5042765;28;20493;-66
2023/10/16 09:47:52;;;;;;;4.83;3.70;;;33.00;1.00;;;;;;5048295;28;20489;-66
2023/10/16 09:50:20;;;;;;;7.60;2.90;;;33.20;1.00;;;;;;5045893;28;20466;-66
2023/10/16 09:52:48;;;;;;;8.47;3.30;;;32.80;1.00;;;;;;5039723;28;20481;-65
2023/10/16 09:55:18;;;;;;;4.90;3.20;;;32.60;1.00;;;;;;5049877;28;20454;-65
2023/10/16 09:57:50;;;;;;;6.07;2.93;;;32.40;1.00;;;;;;5046979;28;20462;-65
2023/10/16 10:00:28;;;;;;;5.03;3.30;;;31.90;1.00;;;;;;5040144;28;20513;-65
2023/10/16 10:03:02;;;;;;;6.23;3.10;;;31.20;1.00;;;;;;5045038;28;20486;-65
2023/10/16 10:05:34;;;;;;;4.90;2.77;;;30.70;1.00;;;;;;5038842;28;20464;-65
2023/10/16 10:08:15;;;;;;;5.17;3.27;;;30.10;1.00;;;;;;5045164;28;20476;-65
2023/10/16 10:13:34;;;;;;;4.90;2.93;;;29.70;1.00;;;;;;5041936;28;20476;-66
2023/10/16 10:16:10;;;;;;;4.50;2.97;;;29.10;1.00;;;;;;5045429;28;20458;-66
2023/10/16 10:18:45;;;;;;;6.20;3.63;;;28.10;1.00;;;;;;5045329;28;20462;-66
2023/10/16 10:21:27;;;;;;;5.20;3.30;;;27.50;1.00;;;;;;5043361;28;21012;-67
2023/10/16 10:24:00;;;;;;;7.03;4.03;;;27.50;1.00;;;;;;5039552;28;20527;-64
2023/10/16 10:26:27;;;;;;;6.13;3.67;;;27.00;1.00;;;;;;5043661;28;20557;-67
2023/10/16 10:29:07;;;;;;;4.90;2.93;;;26.50;1.00;;;;;;5042401;28;20458;-66
2023/10/16 10:31:34;;;;;;;5.03;2.93;;;26.10;1.00;;;;;;5036794;28;20466;-66
2023/10/16 10:34:18;;;;;;;5.57;3.20;;;25.70;1.00;;;;;;5027427;28;20533;-67
2023/10/16 10:36:45;;;;;;;5.33;3.40;;;24.90;1.00;;;;;;5026401;28;20480;-65
2023/10/16 10:39:39;;;;;;;5.97;3.03;;;24.50;1.00;;;;;;5029583;28;20474;-65
2023/10/16 10:42:09;;;;;;;4.67;2.60;;;24.10;1.00;;;;;;5024553;28;20479;-67
2023/10/16 10:44:39;;;;;;;6.30;3.30;;;24.00;1.00;;;;;;5028380;28;20837;-67
2023/10/16 10:47:18;;;;;;;4.53;2.80;;;24.00;1.00;;;;;;5026820;28;20459;-66
2023/10/16 10:49:51;;;;;;;5.70;3.00;;;23.60;1.00;;;;;;5027016;28;20447;-66
2023/10/16 10:52:20;;;;;;;6.83;3.20;;;23.40;1.00;;;;;;5025201;28;20479;-66
2023/10/16 10:54:49;;;;;;;5.50;3.30;;;23.00;1.00;;;;;;5018365;28;20459;-66
2023/10/16 10:57:20;;;;;;;6.60;3.30;;;22.80;1.00;;;;;;5026132;28;20455;-66
2023/10/16 10:59:54;;;;;;;5.73;3.27;;;22.40;1.00;;;;;;5025084;28;20466;-66
2023/10/16 11:02:23;;;;;;;5.53;3.10;;;22.10;1.00;;;;;;5038091;28;20474;-67
2023/10/16 11:04:58;;;;;;;5.20;3.00;;;21.70;1.00;;;;;;5036019;28;20512;-66
2023/10/16 11:07:39;;;;;;;5.63;3.10;;;21.30;1.00;;;;;;5041552;28;20468;-66
2023/10/16 11:10:07;;;;;;;6.23;3.30;;;21.10;1.00;;;;;;5043830;28;20457;-66
2023/10/16 11:12:34;;;;;;;5.53;3.60;;;20.90;1.00;;;;;;5044101;28;20493;-66
2023/10/16 11:15:02;;;;;;;5.40;3.10;;;20.80;1.00;;;;;;5042386;28;20462;-66
2023/10/16 11:17:32;;;;;;;4.17;2.50;;;20.80;1.00;;;;;;5036301;28;20460;-66
2023/10/16 11:20:11;;;;;;;5.63;2.00;;;20.70;1.00;;;;;;5036123;28;20895;-66
2023/10/16 11:22:43;;;;;;;5.43;2.60;;;20.50;1.00;;;;;;5039154;28;20485;-66
2023/10/16 11:25:12;;;;;;;7.20;2.70;;;20.40;1.00;;;;;;5037513;28;21217;-66
2023/10/16 11:27:42;;;;;;;5.87;3.63;;;20.40;1.00;;;;;;5037448;28;20554;-66
2023/10/16 11:30:11;;;;;;;7.10;4.00;;;20.50;1.00;;;;;;5040897;28;20541;-66
2023/10/16 11:32:41;;;;;;;6.80;4.30;;;20.70;1.00;;;;;;5038738;28;20462;-65
2023/10/16 11:35:14;;;;;;;6.90;3.97;;;20.90;1.00;;;;;;5037688;28;20459;-66
2023/10/16 11:37:43;;;;;;;6.90;4.63;;;21.10;1.00;;;;;;5036074;28;20462;-66
2023/10/16 11:40:18;;;;;;;5.10;3.40;;;21.30;1.00;;;;;;5037959;28;20469;-67
2023/10/16 11:42:46;;;;;;;5.27;3.57;;;21.60;1.00;;;;;;5042280;28;20530;-66
2023/10/16 11:45:20;;;;;;;7.07;3.70;;;21.80;1.00;;;;;;5039761;28;20463;-65
2023/10/16 11:48:11;;;;;;;8.23;4.20;;;21.70;1.00;;;;;;5039756;28;20457;-65
2023/10/16 11:50:38;;;;;;;5.40;3.63;;;21.40;1.00;;;;;;5041077;28;20450;-65
2023/10/16 11:53:07;;;;;;;10.60;3.47;;;21.60;1.00;;;;;;5038637;28;20526;-65
2023/10/16 11:55:36;;;;;;;8.30;4.57;;;21.80;1.00;;;;;;5035644;28;20873;-65
2023/10/16 11:58:03;;;;;;;10.23;4.90;;;21.40;1.00;;;;;;5040948;28;21180;-65
2023/10/16 12:00:30;;;;;;;6.60;3.70;;;20.70;1.00;;;;;;5041727;28;20460;-65
2023/10/16 12:02:57;;;;;;;6.83;4.07;;;20.00;1.00;;;;;;5042080;28;20486;-66
2023/10/16 12:05:28;;;;;;;5.70;4.13;;;19.80;1.00;;;;;;5042362;28;20481;-65
2023/10/16 12:07:56;;;;;;;7.67;4.17;;;19.80;1.00;;;;;;5045397;28;20493;-65
2023/10/16 12:10:27;;;;;;;6.20;4.30;;;20.10;1.00;;;;;;5044974;28;20481;-65
2023/10/16 12:12:55;;;;;;;6.93;4.07;;;20.20;1.00;;;;;;5044202;28;20470;-65
2023/10/16 12:15:24;;;;;;;7.13;4.10;;;20.30;1.00;;;;;;5046156;28;20513;-65
2023/10/16 12:17:53;;;;;;;6.50;4.03;;;20.10;1.00;;;;;;5048015;28;20454;-65
2023/10/16 12:20:21;;;;;;;7.57;4.33;;;20.10;1.00;;;;;;5040784;28;20462;-65
2023/10/16 12:22:49;;;;;;;6.77;4.20;;;19.70;1.00;;;;;;5037581;28;20481;-65
2023/10/16 12:25:18;;;;;;;7.03;4.57;;;19.40;1.00;;;;;;5039642;28;20469;-65
2023/10/16 12:27:45;;;;;;;6.03;4.37;;;19.00;1.00;;;;;;5046461;28;20446;-65
2023/10/16 12:30:13;;;;;;;5.97;3.60;;;18.90;1.00;;;;;;5046833;28;20712;-65
2023/10/16 12:32:41;;;;;;;7.43;4.20;;;18.70;1.00;;;;;;5045508;28;20474;-65
2023/10/16 12:35:10;;;;;;;10.30;4.53;;;18.50;1.00;;;;;;5047658;28;20468;-64
2023/10/16 12:37:37;;;;;;;8.93;4.90;;;18.20;1.00;;;;;;5042261;28;20503;-65
2023/10/16 12:40:24;;;;;;;7.30;4.10;;;18.00;1.00;;;;;;5044544;28;20474;-64
2023/10/16 12:42:53;;;;;;;7.57;4.20;;;17.80;1.00;;;;;;5046569;28;20985;-66
2023/10/16 12:45:20;;;;;;;7.23;4.50;;;17.50;1.00;;;;;;5047353;28;20458;-65
2023/10/16 12:47:51;;;;;;;6.93;4.30;;;17.20;1.00;;;;;;5040435;28;20549;-66
2023/10/16 12:50:23;;;;;;;6.00;4.17;;;17.00;1.00;;;;;;5045636;28;20506;-66
2023/10/16 12:52:50;;;;;;;6.43;4.60;;;16.80;1.00;;;;;;5044467;28;20553;-66
2023/10/16 12:55:19;;;;;;;7.60;5.00;;;16.50;1.00;;;;;;5045167;28;20958;-66
2023/10/16 12:57:46;;;;;;;6.97;4.90;;;16.30;1.00;;;;;;5041906;28;20851;-66
2023/10/16 13:00:16;;;;;;;8.17;5.10;;;16.20;1.00;;;;;;5044607;28;20466;-66
2023/10/16 13:02:45;;;;;;;6.23;4.30;;;16.00;1.00;;;;;;5042891;28;20477;-66
2023/10/16 13:05:14;;;;;;;7.07;3.87;;;15.80;1.00;;;;;;5041132;28;21023;-66
2023/10/16 13:07:41;;;;;;;7.10;4.80;;;15.60;1.00;;;;;;5041734;28;21014;-66
2023/10/16 13:10:09;;;;;;;7.13;4.60;;;15.50;1.00;;;;;;5039718;28;20458;-66
2023/10/16 13:12:37;;;;;;;8.90;5.00;;;15.40;1.00;;;;;;5044595;28;20478;-66
2023/10/16 13:15:07;;;;;;;9.07;5.00;;;15.30;1.00;;;;;;5041315;28;20461;-66
2023/10/16 13:17:35;;;;;;;7.47;4.70;;;15.00;1.00;;;;;;5044491;28;20459;-66
2023/10/16 13:20:04;;;;;;;9.17;5.00;;;14.90;1.00;;;;;;5040002;28;20466;-64
2023/10/16 13:22:31;;;;;;;6.30;3.73;;;14.70;1.00;;;;;;5042173;28;20518;-66
2023/10/16 13:24:59;;;;;;;7.73;4.37;;;14.60;1.00;;;;;;5044010;28;20838;-66
2023/10/16 13:27:25;;;;;;;6.53;3.90;;;14.50;1.10;;;;;;5045897;28;20453;-65
2023/10/16 13:29:53;;;;;;;5.90;3.80;;;14.40;1.30;;;;;;5044012;28;20465;-65
2023/10/16 13:32:20;;;;;;;9.40;4.90;;;14.30;1.40;;;;;;5027725;28;20976;-66
2023/10/16 13:34:50;;;;;;;6.97;4.23;;;14.20;2.00;;;;;;5024626;28;20454;-64
2023/10/16 13:37:18;;;;;;;9.67;4.27;;;14.10;1.50;;;;;;5025117;28;20494;-64
2023/10/16 13:39:45;;;;;;;9.63;4.10;;;14.10;1.30;;;;;;5026332;28;20485;-64
2023/10/16 13:42:14;;;;;;;6.37;4.43;;;14.00;1.60;;;;;;5024693;28;20491;-67
2023/10/16 13:44:42;;;;;;;7.00;4.17;;;14.00;2.20;;;;;;5022677;28;20465;-65
2023/10/16 13:47:10;;;;;;;5.90;3.87;;;13.90;2.20;;;;;;5028133;28;20466;-66
2023/10/16 13:49:37;;;;;;;6.47;4.07;;;13.80;2.70;;;;;;5023821;28;20510;-66
2023/10/16 13:52:07;;;;;;;7.20;4.80;;;13.80;2.50;;;;;;5021762;28;20472;-66
2023/10/16 13:54:35;;;;;;;6.20;3.70;;;13.80;2.60;;;;;;5024222;28;20461;-66
2023/10/16 13:57:02;;;;;;;6.63;4.27;;;13.70;2.80;;;;;;5025293;28;20557;-66
2023/10/16 13:59:29;;;;;;;6.63;3.90;;;13.70;2.70;;;;;;5023008;28;20460;-66
2023/10/16 14:01:56;;;;;;;6.27;3.60;;;13.60;2.80;;;;;;5037821;28;20600;-66
2023/10/16 14:04:25;;;;;;;6.90;3.90;;;13.60;2.40;;;;;;5056951;23;21073;-68
2023/10/16 14:06:52;;;;;;;11.67;4.83;;;13.60;1.60;;;;;;5047501;28;20901;-68
2023/10/16 14:09:27;;;;;;;6.33;4.20;;;13.50;2.40;;;;;;5046476;28;20455;-68
2023/10/16 14:11:54;;;;;;;5.70;3.80;;;13.50;2.90;;;;;;5044071;28;20465;-68
2023/10/16 14:14:24;;;;;;;5.67;3.83;;;13.40;3.20;;;;;;5042803;28;20486;-68
2023/10/16 14:16:53;;;;;;;6.00;3.80;;;13.30;3.20;;;;;;5042267;28;20507;-69
2023/10/16 14:19:22;;;;;;;6.10;3.63;;;13.20;2.80;;;;;;5043566;28;20462;-69